Terminal Aerodrome Forecast
Issued by NWS Louisville, KY

Home | Current Version | Previous Version | Text Only | Print | Product List | Glossary On
Versions: 1 2 3 4 5 6 7 8 9 10 11 12 13 14 15 16 17 18 19 20 21 22 23
566
FTUS43 KLMK 192328
TAFBWG
TAF
KBWG 192328Z 2000/2024 00000KT P6SM SKC
     FM200600 00000KT 4SM BR FEW250
     FM200900 00000KT 1SM BR SCT008
     FM201400 13006KT P6SM BKN200=

USA.gov is the U.S. government's official web portal to all federal, state and local government web resources and services.